createdAt,value
2023-04-06T00:02:39.547Z,101639.03
2023-04-06T00:07:41.760Z,101634.31
2023-04-06T00:12:44.717Z,101634.66
2023-04-06T00:17:48.389Z,101627.28
2023-04-06T00:22:50.728Z,101628.44
2023-04-06T00:27:52.594Z,101626.47
2023-04-06T00:32:56.112Z,101625.34
2023-04-06T00:37:58.294Z,101616.75
2023-04-06T00:43:00.225Z,101621.13
2023-04-06T00:48:04.301Z,101622.91
2023-04-06T00:53:06.973Z,101616.03
2023-04-06T00:58:08.906Z,101622.53
2023-04-06T01:03:12.808Z,101612.78
2023-04-06T01:08:14.805Z,101607.16
2023-04-06T01:13:17.076Z,101608.59
2023-04-06T01:18:26.898Z,101608.91
2023-04-06T01:23:30.743Z,101609.41
2023-04-06T01:28:32.754Z,101606.97
2023-04-06T01:33:35.226Z,101620.47
2023-04-06T01:38:38.773Z,101614.03
2023-04-06T01:43:40.640Z,101616.47
2023-04-06T01:48:43.230Z,101616.53
2023-04-06T01:53:46.669Z,101607.25
2023-04-06T01:58:48.996Z,101599.50
2023-04-06T02:03:51.523Z,101605.81
2023-04-06T02:08:55.062Z,101605.56
2023-04-06T02:13:57.184Z,101609.22
2023-04-06T02:18:59.405Z,101607.41
2023-04-06T02:24:03.013Z,101599.75
2023-04-06T02:29:05.191Z,101601.59
2023-04-06T02:34:07.369Z,101608.69
2023-04-06T02:39:10.986Z,101603.22
2023-04-06T02:44:13.199Z,101598.78
2023-04-06T02:49:15.447Z,101600.06
2023-04-06T02:54:19.084Z,101598.22
2023-04-06T02:59:21.322Z,101610.09
2023-04-06T03:04:24.107Z,101605.63
2023-04-06T03:09:27.637Z,101595.81
2023-04-06T03:14:29.693Z,101611.09
2023-04-06T03:19:31.960Z,101609.44
2023-04-06T03:24:35.159Z,101606.53
2023-04-06T03:29:37.271Z,101616.66
2023-04-06T03:34:41.968Z,101616.94
2023-04-06T03:39:47.743Z,101621.22
2023-04-06T03:44:50.009Z,101629.66
2023-04-06T03:49:52.508Z,101631.28
2023-04-06T03:54:56.022Z,101634.47
2023-04-06T03:59:57.819Z,101641.47
2023-04-06T04:04:59.864Z,101646.56
2023-04-06T04:10:03.840Z,101652.03
2023-04-06T04:15:06.631Z,101652.19
2023-04-06T04:20:09.497Z,101644.78
2023-04-06T04:25:13.107Z,101642.19
2023-04-06T04:30:15.084Z,101652.03
2023-04-06T04:35:17.942Z,101647.72
2023-04-06T04:40:21.739Z,101653.28
2023-04-06T04:45:23.924Z,101654.09
2023-04-06T04:50:26.172Z,101659.72
2023-04-06T04:55:29.869Z,101657.94
2023-04-06T05:00:32.435Z,101658.75
2023-04-06T05:05:34.952Z,101659.19
2023-04-06T05:10:38.967Z,101665.44
2023-04-06T05:15:41.429Z,101665.63
2023-04-06T05:20:43.961Z,101671.97
2023-04-06T05:25:47.537Z,101670.78
2023-04-06T05:30:50.338Z,101673.06
2023-04-06T05:35:52.762Z,101670.34
2023-04-06T05:40:56.546Z,101661.81
2023-04-06T05:45:58.797Z,101665.06
2023-04-06T05:51:01.076Z,101673.16
2023-04-06T05:56:05.382Z,101667.84
2023-04-06T06:01:07.198Z,101673.50
2023-04-06T06:06:09.551Z,101675.81
2023-04-06T06:11:13.299Z,101672.63
2023-04-06T06:16:15.542Z,101679.53
2023-04-06T06:21:18.119Z,101683.03
2023-04-06T06:26:21.776Z,101685.75
2023-04-06T06:31:23.676Z,101683.34
2023-04-06T06:36:26.376Z,101689.06
2023-04-06T06:41:30.156Z,101689.31
2023-04-06T06:46:34.272Z,101685.06
2023-04-06T06:51:36.556Z,101686.97
2023-04-06T06:56:40.222Z,101686.28
2023-04-06T07:01:42.113Z,101673.84
2023-04-06T07:06:44.226Z,101684.16
2023-04-06T07:11:47.941Z,101683.78
2023-04-06T07:16:49.975Z,101683.34
2023-04-06T07:21:51.901Z,101689.41
2023-04-06T07:26:55.601Z,101685.00
2023-04-06T07:31:57.450Z,101673.47
2023-04-06T07:37:01.116Z,101680.97
2023-04-06T07:42:06.004Z,101671.28
2023-04-06T07:47:07.836Z,101676.22
2023-04-06T07:52:10.090Z,101674.47
2023-04-06T07:57:13.645Z,101680.47
2023-04-06T08:02:15.521Z,101667.69
2023-04-06T08:07:18.363Z,101666.53
2023-04-06T08:12:21.985Z,101667.81
2023-04-06T08:17:23.769Z,101660.25
2023-04-06T08:22:25.953Z,101665.53
2023-04-06T08:27:29.204Z,101663.88
2023-04-06T08:32:31.318Z,101662.47
2023-04-06T08:37:33.444Z,101663.44
2023-04-06T08:42:41.847Z,101663.00
2023-04-06T08:47:44.131Z,101661.06
2023-04-06T08:52:48.380Z,101662.50
2023-04-06T08:57:52.911Z,101662.00
2023-04-06T09:02:57.312Z,101662.00
2023-04-06T09:08:02.699Z,101664.03
2023-04-06T09:13:06.966Z,101658.88
2023-04-06T09:18:09.158Z,101652.59
2023-04-06T09:23:19.126Z,101650.81
2023-04-06T09:28:23.163Z,101637.16
2023-04-06T09:33:25.195Z,101639.72
2023-04-06T09:38:27.312Z,101637.88
2023-04-06T09:43:30.978Z,101632.75
2023-04-06T09:48:36.155Z,101635.25
2023-04-06T09:53:43.219Z,101632.28
2023-04-06T09:58:48.676Z,101632.69
2023-04-06T10:03:58.048Z,101623.25
2023-04-06T10:09:02.633Z,101621.34
2023-04-06T10:14:07.205Z,101625.91
2023-04-06T10:19:17.027Z,101613.09
2023-04-06T10:24:18.831Z,101617.13
2023-04-06T10:29:22.359Z,101604.94
2023-04-06T10:34:35.967Z,101601.56
2023-04-06T10:39:47.035Z,101608.91
2023-04-06T10:44:50.691Z,101602.84
2023-04-06T10:49:59.175Z,101607.06
2023-04-06T10:55:02.661Z,101600.25
2023-04-06T11:00:08.191Z,101595.59
2023-04-06T11:05:13.775Z,101596.72
2023-04-06T11:10:22.848Z,101584.44
2023-04-06T11:15:26.466Z,101583.84
2023-04-06T11:20:28.749Z,101570.53
2023-04-06T11:25:30.848Z,101573.44
2023-04-06T11:30:34.771Z,101572.28
2023-04-06T11:35:38.607Z,101574.25
2023-04-06T11:40:40.997Z,101560.50
2023-04-06T11:45:44.660Z,101558.91
2023-04-06T11:50:49.576Z,101558.47
2023-04-06T11:55:52.042Z,101555.41
2023-04-06T12:01:04.973Z,101544.28
2023-04-06T12:06:06.994Z,101558.84
2023-04-06T12:11:09.454Z,101545.41
2023-04-06T12:16:13.044Z,101536.75
2023-04-06T12:21:14.887Z,101546.94
2023-04-06T12:26:16.658Z,101540.56
2023-04-06T12:31:21.291Z,101537.97
2023-04-06T12:36:23.533Z,101529.78
2023-04-06T12:41:26.080Z,101531.34
2023-04-06T12:46:30.293Z,101521.81
2023-04-06T12:51:32.142Z,101517.38
2023-04-06T12:56:34.408Z,101505.47
2023-04-06T13:01:38.830Z,101513.78
2023-04-06T13:06:41.105Z,101511.97
2023-04-06T13:11:43.425Z,101490.97
2023-04-06T13:16:47.166Z,101500.16
2023-04-06T13:21:49.287Z,101500.16
2023-04-06T13:26:51.803Z,101482.75
2023-04-06T13:31:55.093Z,101475.47
2023-04-06T13:36:57.149Z,101491.09
2023-04-06T13:41:59.001Z,101472.47
2023-04-06T13:47:02.325Z,101465.53
2023-04-06T13:52:04.497Z,101476.53
2023-04-06T13:57:08.366Z,101464.97
2023-04-06T14:02:11.711Z,101464.44
2023-04-06T14:07:13.773Z,101464.38
2023-04-06T14:12:16.115Z,101470.53
2023-04-06T14:17:19.673Z,101467.19
2023-04-06T14:22:21.700Z,101464.28
2023-04-06T14:27:24.140Z,101456.69
2023-04-06T14:32:27.290Z,101451.88
2023-04-06T14:37:29.247Z,101465.38
2023-04-06T14:42:31.013Z,101453.69
2023-04-06T14:47:34.845Z,101453.88
2023-04-06T14:52:37.102Z,101445.38
2023-04-06T14:57:39.228Z,101444.44
2023-04-06T15:02:42.551Z,101453.03
2023-04-06T15:07:44.816Z,101453.47
2023-04-06T15:12:47.229Z,101442.09
2023-04-06T15:17:50.761Z,101450.19
2023-04-06T15:22:53.018Z,101438.63
2023-04-06T15:27:55.064Z,101441.88
2023-04-06T15:33:00.134Z,101443.22
2023-04-06T15:38:03.393Z,101442.06
2023-04-06T15:43:05.110Z,101434.69
2023-04-06T15:48:08.746Z,101427.78
2023-04-06T15:53:10.967Z,101432.00
2023-04-06T15:58:13.094Z,101444.00
2023-04-06T16:03:16.799Z,101443.91
2023-04-06T16:08:19.172Z,101444.84
2023-04-06T16:13:21.341Z,101444.13
2023-04-06T16:18:24.438Z,101446.03
2023-04-06T16:23:33.907Z,101445.34
2023-04-06T16:28:36.168Z,101446.22
2023-04-06T16:33:39.722Z,101446.31
2023-04-06T16:38:41.462Z,101447.66
2023-04-06T16:43:43.716Z,101448.06
2023-04-06T16:48:47.093Z,101436.75
2023-04-06T16:53:48.959Z,101444.75
2023-04-06T16:58:50.906Z,101443.00
2023-04-06T17:03:55.255Z,101446.59
2023-04-06T17:08:57.181Z,101444.78
2023-04-06T17:13:59.573Z,101453.63
2023-04-06T17:19:03.089Z,101457.13
2023-04-06T17:24:05.396Z,101443.81
2023-04-06T17:29:07.452Z,101445.47
2023-04-06T17:34:10.618Z,101453.25
2023-04-06T17:39:12.775Z,101470.75
2023-04-06T17:44:14.638Z,101467.03
2023-04-06T17:49:17.758Z,101473.84
2023-04-06T17:54:19.853Z,101483.22
2023-04-06T17:59:21.636Z,101474.22
2023-04-06T18:04:24.768Z,101471.13
2023-04-06T18:14:34.932Z,101484.66
2023-04-06T18:19:38.445Z,101489.28
2023-04-06T18:24:42.874Z,101498.59
2023-04-06T18:29:45.488Z,101504.53
2023-04-06T18:34:48.917Z,101494.69
2023-04-06T18:39:51.237Z,101495.31
2023-04-06T18:44:53.485Z,101502.03
2023-04-06T18:49:56.772Z,101503.50
2023-04-06T18:54:59.132Z,101505.91
2023-04-06T19:00:04.182Z,101506.56
2023-04-06T19:05:15.005Z,101507.06
2023-04-06T19:10:16.797Z,101516.75
2023-04-06T19:15:19.361Z,101508.63
2023-04-06T19:20:23.059Z,101518.03
2023-04-06T19:25:24.778Z,101515.91
2023-04-06T19:30:26.634Z,101515.56
2023-04-06T19:35:30.216Z,101520.38
2023-04-06T19:40:32.298Z,101524.38
2023-04-06T19:45:34.022Z,101518.75
2023-04-06T19:50:37.569Z,101520.16
2023-04-06T19:55:39.746Z,101525.09
2023-04-06T20:00:41.813Z,101520.88
2023-04-06T20:05:45.026Z,101519.56
2023-04-06T20:10:47.367Z,101518.00
2023-04-06T20:15:49.324Z,101517.59
2023-04-06T20:20:52.611Z,101516.88
2023-04-06T20:25:55.019Z,101518.56
2023-04-06T20:30:57.259Z,101523.19
2023-04-06T20:36:01.721Z,101523.81
2023-04-06T20:41:03.864Z,101526.69
2023-04-06T20:46:06.551Z,101528.81
2023-04-06T20:51:17.883Z,101528.13
2023-04-06T20:56:20.318Z,101514.56
2023-04-06T21:01:22.233Z,101522.28
2023-04-06T21:06:27.612Z,101530.22
2023-04-06T21:11:29.883Z,101522.75
2023-04-06T21:16:32.123Z,101525.91
2023-04-06T21:21:35.225Z,101513.25
2023-04-06T21:26:37.017Z,101513.75
2023-04-06T21:31:40.319Z,101517.38
2023-04-06T21:36:43.591Z,101516.16
2023-04-06T21:41:45.795Z,101518.03
2023-04-06T21:46:47.563Z,101520.38
2023-04-06T21:51:50.679Z,101515.47
2023-04-06T21:56:52.485Z,101521.25
2023-04-06T22:01:56.302Z,101527.81
2023-04-06T22:07:00.191Z,101516.91
2023-04-06T22:12:01.935Z,101506.75
2023-04-06T22:17:04.132Z,101515.41
2023-04-06T22:22:07.922Z,101515.59
2023-04-06T22:27:09.848Z,101507.13
2023-04-06T22:32:11.951Z,101512.84
2023-04-06T22:37:15.470Z,101511.31
2023-04-06T22:42:17.255Z,101514.63
2023-04-06T22:47:19.143Z,101506.84
2023-04-06T22:52:22.434Z,101511.81
2023-04-06T22:57:24.242Z,101510.28
2023-04-06T23:02:26.140Z,101507.97
2023-04-06T23:07:29.513Z,101501.84
2023-04-06T23:12:31.586Z,101502.78
2023-04-06T23:17:33.605Z,101509.22
2023-04-06T23:22:36.742Z,101498.38
2023-04-06T23:27:39.091Z,101513.00
2023-04-06T23:32:40.906Z,101500.53
2023-04-06T23:37:44.129Z,101491.09
2023-04-06T23:42:45.959Z,101493.84
2023-04-06T23:47:48.283Z,101496.59
2023-04-06T23:52:51.889Z,101499.63
2023-04-06T23:57:53.563Z,101496.31
